F.r. Bigelow — WDB8153 — position and weather

sailwx.info

Track history (hours):
 
Tides and Currents Weather Stations Pressure Air Temp Water Temp Dewpoint Dewpoint Depression Visibility Wind Speed Wind Dir Waves Ship Positions

F.r. Bigelow

Owner: INGRAM BARGE COMPANY, Nashville, TN. More information available from US FCC via Universal Licensing System and Coast Guard Vessel Documentation Center.

Last reported at 2014-Dec-20 09:30 UTC. Time now 2014-Dec-21 00:27 UTC.
Position N 29°55' W 090°13'.

Length 46 m; draft 2.7 m.

Type: Tow > 200 m length. MMSI: 366953890.

Date/timePositionNaut miles runAvg speedWind from/ knotsBaromVisibWave heightAir tempDewpointWater temp
2014-Dec-20 09:30N 29°55' W 090°13'4 3.9
2014-Dec-20 08:30N 29°57' W 090°08'3 3.5
2014-Dec-20 07:33N 29°55' W 090°06'3 2.6
2014-Dec-20 06:29N 29°57' W 090°03'0 0.0
2014-Dec-20 05:33N 29°57' W 090°03'0 0.1
2014-Dec-20 04:32N 29°56' W 090°03'0 0.1
2014-Dec-20 03:33N 29°57' W 090°03'0 0.0
2014-Dec-20 02:23N 29°57' W 090°03'0 0.1
2014-Dec-20 01:30N 29°57' W 090°03'0 0.0
2014-Dec-20 00:05N 29°56' W 090°03'4 0.2
2014-Dec-18 23:34N 29°56' W 089°58'5 4.4
2014-Dec-18 22:32N 29°56' W 090°04'8 0.8
2014-Dec-18 12:17N 29°56' W 090°13'5 4.2
2014-Dec-18 11:06N 29°56' W 090°19'7 3.7
2014-Dec-18 09:18N 29°60' W 090°25'0 0.0
2014-Dec-18 08:14N 29°60' W 090°25'0 0.1
2014-Dec-18 06:30N 29°60' W 090°25'  
2014-Dec-15 06:24N 29°56' W 090°12'3 3.4
2014-Dec-15 05:28N 29°55' W 090°08'5 5.0
2014-Dec-15 04:33N 29°57' W 090°03'7 6.2
2014-Dec-15 03:23N 29°55' W 089°56'4 3.3
2014-Dec-15 02:18N 29°52' W 089°58'5 6.4
2014-Dec-15 01:27N 29°47' W 090°01'9 0.5
2014-Dec-14 07:10N 29°56' W 090°03'3 4.6
2014-Dec-14 06:29N 29°54' W 090°07'37 2.3
2014-Dec-13 14:33N 29°59' W 090°49'5 4.6
2014-Dec-13 13:32N 30°04' W 090°51'0 0.1
2014-Dec-13 11:32N 30°04' W 090°51'0 0.0
2014-Dec-13 10:32N 30°04' W 090°51'0 0.0
2014-Dec-13 09:30N 30°04' W 090°51'0 0.0
2014-Dec-13 08:24N 30°04' W 090°51'4 0.5
2014-Dec-13 01:27N 30°00' W 090°50'19 1.2
2014-Dec-12 09:14N 30°02' W 090°28'3 5.1
2014-Dec-12 08:33N 29°60' W 090°25'4 4.3
2014-Dec-12 07:33N 29°56' W 090°22'11 5.1
2014-Dec-12 05:30N 29°57' W 090°10'4 4.5
2014-Dec-12 04:31N 29°55' W 090°06'3 2.8
2014-Dec-12 03:33N 29°57' W 090°03'0 0.0
2014-Dec-12 02:30N 29°57' W 090°03'0 0.0
2014-Dec-12 01:33N 29°57' W 090°03'6 2.5
2014-Dec-11 23:14N 29°53' W 089°58'3 0.1
2014-Dec-10 15:28N 29°55' W 089°57'5 5.8
2014-Dec-10 14:32N 29°56' W 090°03'4 3.7
2014-Dec-10 13:31N 29°55' W 090°07'  
Track history (hours):
 
Tides and Currents Weather Stations Pressure Air Temp Water Temp Dewpoint Dewpoint Depression Visibility Wind Speed Wind Dir Waves Ship Positions

F.r. Bigelow

Owner: INGRAM BARGE COMPANY, Nashville, TN. More information available from US FCC via Universal Licensing System and Coast Guard Vessel Documentation Center.

Last reported at 2014-Dec-20 09:30 UTC. Time now 2014-Dec-21 00:27 UTC.
Position N 29°55' W 090°13'.

Length 46 m; draft 2.7 m.

Type: Tow > 200 m length. MMSI: 366953890.

Date/timePositionNaut miles runAvg speedWind from/ knotsBaromVisibWave heightAir tempDewpointWater temp
2014-Dec-20 09:30N 29°55' W 090°13'4 3.9
2014-Dec-20 08:30N 29°57' W 090°08'3 3.5
2014-Dec-20 07:33N 29°55' W 090°06'3 2.6
2014-Dec-20 06:29N 29°57' W 090°03'0 0.0
2014-Dec-20 05:33N 29°57' W 090°03'0 0.1
2014-Dec-20 04:32N 29°56' W 090°03'0 0.1
2014-Dec-20 03:33N 29°57' W 090°03'0 0.0
2014-Dec-20 02:23N 29°57' W 090°03'0 0.1
2014-Dec-20 01:30N 29°57' W 090°03'0 0.0
2014-Dec-20 00:05N 29°56' W 090°03'4 0.2
2014-Dec-18 23:34N 29°56' W 089°58'5 4.4
2014-Dec-18 22:32N 29°56' W 090°04'8 0.8
2014-Dec-18 12:17N 29°56' W 090°13'5 4.2
2014-Dec-18 11:06N 29°56' W 090°19'7 3.7
2014-Dec-18 09:18N 29°60' W 090°25'0 0.0
2014-Dec-18 08:14N 29°60' W 090°25'0 0.1
2014-Dec-18 06:30N 29°60' W 090°25'  
2014-Dec-15 06:24N 29°56' W 090°12'3 3.4
2014-Dec-15 05:28N 29°55' W 090°08'5 5.0
2014-Dec-15 04:33N 29°57' W 090°03'7 6.2
2014-Dec-15 03:23N 29°55' W 089°56'4 3.3
2014-Dec-15 02:18N 29°52' W 089°58'5 6.4
2014-Dec-15 01:27N 29°47' W 090°01'9 0.5
2014-Dec-14 07:10N 29°56' W 090°03'3 4.6
2014-Dec-14 06:29N 29°54' W 090°07'37 2.3
2014-Dec-13 14:33N 29°59' W 090°49'5 4.6
2014-Dec-13 13:32N 30°04' W 090°51'0 0.1
2014-Dec-13 11:32N 30°04' W 090°51'0 0.0
2014-Dec-13 10:32N 30°04' W 090°51'0 0.0
2014-Dec-13 09:30N 30°04' W 090°51'0 0.0
2014-Dec-13 08:24N 30°04' W 090°51'4 0.5
2014-Dec-13 01:27N 30°00' W 090°50'19 1.2
2014-Dec-12 09:14N 30°02' W 090°28'3 5.1
2014-Dec-12 08:33N 29°60' W 090°25'4 4.3
2014-Dec-12 07:33N 29°56' W 090°22'11 5.1
2014-Dec-12 05:30N 29°57' W 090°10'4 4.5
2014-Dec-12 04:31N 29°55' W 090°06'3 2.8
2014-Dec-12 03:33N 29°57' W 090°03'0 0.0
2014-Dec-12 02:30N 29°57' W 090°03'0 0.0
2014-Dec-12 01:33N 29°57' W 090°03'6 2.5
2014-Dec-11 23:14N 29°53' W 089°58'3 0.1
2014-Dec-10 15:28N 29°55' W 089°57'5 5.8
2014-Dec-10 14:32N 29°56' W 090°03'4 3.7
2014-Dec-10 13:31N 29°55' W 090°07'  

Dump ship's entire track history